createdAt,value
2017-11-07T00:00:55.581Z,17.45
2017-11-07T00:02:02.106Z,18.27
2017-11-07T00:03:07.870Z,17.65
2017-11-07T00:04:13.625Z,18.08
2017-11-07T00:05:19.989Z,16.65
2017-11-07T00:06:26.514Z,16.23
2017-11-07T00:07:32.264Z,16.60
2017-11-07T00:08:38.064Z,16.23
2017-11-07T00:09:43.916Z,16.73
2017-11-07T00:10:49.700Z,15.57
2017-11-07T00:11:55.269Z,15.63
2017-11-07T00:13:00.819Z,15.80
2017-11-07T00:14:06.397Z,14.98
2017-11-07T00:15:12.200Z,14.38
2017-11-07T00:16:17.809Z,15.13
2017-11-07T00:17:24.133Z,17.25
2017-11-07T00:18:29.892Z,15.05
2017-11-07T00:19:35.720Z,14.43
2017-11-07T00:20:41.493Z,15.70
2017-11-07T00:21:48.047Z,14.35
2017-11-07T00:22:53.804Z,15.38
2017-11-07T00:23:59.556Z,15.93
2017-11-07T00:25:05.307Z,17.37
2017-11-07T00:26:11.067Z,15.55
2017-11-07T00:27:16.877Z,16.45
2017-11-07T00:28:22.657Z,16.48
2017-11-07T00:29:28.418Z,16.42
2017-11-07T00:30:34.207Z,15.60
2017-11-07T00:31:39.953Z,14.40
2017-11-07T00:32:45.741Z,13.75
2017-11-07T00:33:51.295Z,14.98
2017-11-07T00:34:57.621Z,15.88
2017-11-07T00:36:03.381Z,15.82
2017-11-07T00:37:09.140Z,13.75
2017-11-07T00:38:15.690Z,14.52
2017-11-07T00:39:22.208Z,14.20
2017-11-07T00:40:27.965Z,15.45
2017-11-07T00:41:33.713Z,12.65
2017-11-07T00:42:39.493Z,14.75
2017-11-07T00:43:46.028Z,15.40
2017-11-07T00:44:51.780Z,14.73
2017-11-07T00:45:58.313Z,14.98
2017-11-07T00:47:03.877Z,13.60
2017-11-07T00:48:10.468Z,16.35
2017-11-07T00:49:16.241Z,14.70
2017-11-07T00:50:21.998Z,14.43
2017-11-07T00:51:27.751Z,13.88
2017-11-07T00:52:33.300Z,15.68
2017-11-07T00:53:39.821Z,14.23
2017-11-07T00:54:45.600Z,15.43
2017-11-07T00:55:51.317Z,14.52
2017-11-07T00:56:57.073Z,14.35
2017-11-07T00:58:02.845Z,15.70
2017-11-07T00:59:09.005Z,14.27
2017-11-07T01:00:14.780Z,14.05
2017-11-07T01:01:20.534Z,15.02
2017-11-07T01:02:26.296Z,13.70
2017-11-07T01:03:32.819Z,13.65
2017-11-07T01:04:38.632Z,15.85
2017-11-07T01:05:44.425Z,16.33
2017-11-07T01:06:50.181Z,15.35
2017-11-07T01:07:56.705Z,15.52
2017-11-07T01:09:02.467Z,14.20
2017-11-07T01:10:08.223Z,15.10
2017-11-07T01:11:14.781Z,14.90
2017-11-07T01:12:21.305Z,14.43
2017-11-07T01:13:27.053Z,14.82
2017-11-07T01:14:32.798Z,14.75
2017-11-07T01:15:38.562Z,15.30
2017-11-07T01:16:44.127Z,14.15
2017-11-07T01:17:50.641Z,15.52
2017-11-07T01:18:56.416Z,13.10
2017-11-07T01:20:02.946Z,15.45
2017-11-07T01:21:08.695Z,14.68
2017-11-07T01:22:14.478Z,15.15
2017-11-07T01:23:20.232Z,14.75
2017-11-07T01:24:25.984Z,16.55
2017-11-07T01:25:31.533Z,16.98
2017-11-07T01:26:37.343Z,15.07
2017-11-07T01:27:43.117Z,14.25
2017-11-07T01:28:48.872Z,15.30
2017-11-07T01:29:54.278Z,14.60
2017-11-07T01:30:59.690Z,14.18
2017-11-07T01:32:05.440Z,14.68
2017-11-07T01:33:11.208Z,13.55
2017-11-07T01:34:16.751Z,13.85
2017-11-07T01:35:22.505Z,14.15
2017-11-07T01:36:28.264Z,14.32
2017-11-07T01:37:34.033Z,13.88
2017-11-07T01:38:39.816Z,13.25
2017-11-07T01:39:45.582Z,14.68
2017-11-07T01:40:51.078Z,14.52
2017-11-07T01:41:56.854Z,12.35
2017-11-07T01:43:02.289Z,14.13
2017-11-07T01:44:08.057Z,11.77
2017-11-07T01:45:14.077Z,13.60
2017-11-07T01:46:19.830Z,13.70
2017-11-07T01:47:25.584Z,14.55
2017-11-07T01:48:32.103Z,13.62
2017-11-07T01:49:37.892Z,12.73
2017-11-07T01:50:44.409Z,14.90
2017-11-07T01:51:50.163Z,14.95
2017-11-07T01:52:55.904Z,15.75
2017-11-07T01:54:01.652Z,13.88
2017-11-07T01:55:08.197Z,16.08
2017-11-07T01:56:13.604Z,15.32
2017-11-07T01:57:19.349Z,14.10
2017-11-07T01:58:24.918Z,14.18
2017-11-07T01:59:30.677Z,15.40
2017-11-07T02:00:37.758Z,15.35
2017-11-07T02:01:44.264Z,15.23
2017-11-07T02:02:50.017Z,15.25
2017-11-07T02:03:55.824Z,13.77
2017-11-07T02:05:01.585Z,13.38
2017-11-07T02:06:07.401Z,12.18
2017-11-07T02:07:13.161Z,12.85
2017-11-07T02:08:18.925Z,13.43
2017-11-07T02:09:24.678Z,13.85
2017-11-07T02:10:30.292Z,14.57
2017-11-07T02:11:36.080Z,13.18
2017-11-07T02:12:42.616Z,12.75
2017-11-07T02:13:48.363Z,12.68
2017-11-07T02:14:54.123Z,14.00
2017-11-07T02:16:00.665Z,12.85
2017-11-07T02:17:07.223Z,11.98
2017-11-07T02:18:12.984Z,12.43
2017-11-07T02:19:18.810Z,12.65
2017-11-07T02:20:24.566Z,12.23
2017-11-07T02:21:29.968Z,11.75
2017-11-07T02:22:35.067Z,11.90
2017-11-07T02:23:40.480Z,12.55
2017-11-07T02:24:46.235Z,12.70
2017-11-07T02:25:51.285Z,12.90
2017-11-07T02:26:56.692Z,12.98
2017-11-07T02:28:02.468Z,11.18
2017-11-07T02:29:07.529Z,12.65
2017-11-07T02:30:13.366Z,13.52
2017-11-07T02:31:18.774Z,13.62
2017-11-07T02:32:24.762Z,13.05
2017-11-07T02:33:31.336Z,12.50
2017-11-07T02:34:36.560Z,12.60
2017-11-07T02:35:43.076Z,12.85
2017-11-07T02:36:48.818Z,11.88
2017-11-07T02:37:53.880Z,13.20
2017-11-07T02:38:59.660Z,13.88
2017-11-07T02:40:04.493Z,14.45
2017-11-07T02:41:10.266Z,14.90
2017-11-07T02:42:16.464Z,14.57
2017-11-07T02:43:22.973Z,13.98
2017-11-07T02:44:28.769Z,14.02
2017-11-07T02:45:34.507Z,13.43
2017-11-07T02:46:41.021Z,14.00
2017-11-07T02:47:47.193Z,12.75
2017-11-07T02:48:52.956Z,12.52
2017-11-07T02:49:58.725Z,14.23
2017-11-07T02:51:04.493Z,13.30
2017-11-07T02:52:10.220Z,13.30
2017-11-07T02:53:15.982Z,12.23
2017-11-07T02:54:22.507Z,13.52
2017-11-07T02:55:28.284Z,12.30
2017-11-07T02:56:34.801Z,12.63
2017-11-07T02:57:40.557Z,14.48
2017-11-07T02:58:46.308Z,12.37
2017-11-07T02:59:51.714Z,12.80
2017-11-07T03:00:57.497Z,12.25
2017-11-07T03:02:03.268Z,14.35
2017-11-07T03:03:09.024Z,12.90
2017-11-07T03:04:14.769Z,14.95
2017-11-07T03:05:20.517Z,13.40
2017-11-07T03:06:26.291Z,14.87
2017-11-07T03:07:32.048Z,13.82
2017-11-07T03:08:38.561Z,14.38
2017-11-07T03:09:44.465Z,14.57
2017-11-07T03:10:51.057Z,15.13
2017-11-07T03:11:57.006Z,15.35
2017-11-07T03:13:02.845Z,13.55
2017-11-07T03:14:08.672Z,14.45
2017-11-07T03:15:15.180Z,12.80
2017-11-07T03:16:20.925Z,14.38
2017-11-07T03:17:26.716Z,12.55
2017-11-07T03:18:32.473Z,14.43
2017-11-07T03:19:38.225Z,14.43
2017-11-07T03:20:43.984Z,15.02
2017-11-07T03:21:49.727Z,13.80
2017-11-07T03:22:55.320Z,16.30
2017-11-07T03:24:01.073Z,12.40
2017-11-07T03:25:06.825Z,14.43
2017-11-07T03:26:12.568Z,15.25
2017-11-07T03:27:18.324Z,14.63
2017-11-07T03:28:24.099Z,14.48
2017-11-07T03:29:30.624Z,14.70
2017-11-07T03:30:36.369Z,12.40
2017-11-07T03:31:41.914Z,14.07
2017-11-07T03:32:47.682Z,15.48
2017-11-07T03:33:54.228Z,13.70
2017-11-07T03:34:59.976Z,14.20
2017-11-07T03:36:06.508Z,12.95
2017-11-07T03:37:12.257Z,13.35
2017-11-07T03:38:18.019Z,15.35
2017-11-07T03:39:23.793Z,14.87
2017-11-07T03:40:29.540Z,13.00
2017-11-07T03:41:35.275Z,12.82
2017-11-07T03:42:41.044Z,14.02
2017-11-07T03:43:46.788Z,13.15
2017-11-07T03:44:52.572Z,15.10
2017-11-07T03:45:58.320Z,15.57
2017-11-07T03:47:04.847Z,13.30
2017-11-07T03:48:10.600Z,13.85
2017-11-07T03:49:17.851Z,14.55
2017-11-07T03:50:23.641Z,14.55
2017-11-07T03:51:30.162Z,13.10
2017-11-07T03:52:35.916Z,13.55
2017-11-07T03:53:41.684Z,14.52
2017-11-07T03:54:47.430Z,13.38
2017-11-07T03:55:53.719Z,13.55
2017-11-07T03:56:59.480Z,12.63
2017-11-07T03:58:06.004Z,13.10
2017-11-07T03:59:12.239Z,13.15
2017-11-07T04:00:17.998Z,13.27
2017-11-07T04:01:23.777Z,12.48
2017-11-07T04:02:29.541Z,12.80
2017-11-07T04:03:35.294Z,14.55
2017-11-07T04:04:42.089Z,12.13
2017-11-07T04:05:47.834Z,13.25
2017-11-07T04:06:53.617Z,12.32
2017-11-07T04:08:00.669Z,12.75
2017-11-07T04:09:05.741Z,13.40
2017-11-07T04:10:12.522Z,12.50
2017-11-07T04:11:18.277Z,12.30
2017-11-07T04:12:24.064Z,11.55
2017-11-07T04:13:29.909Z,11.85
2017-11-07T04:14:35.661Z,11.93
2017-11-07T04:15:42.197Z,14.57
2017-11-07T04:16:47.970Z,12.35
2017-11-07T04:17:54.523Z,13.05
2017-11-07T04:19:00.285Z,12.70
2017-11-07T04:20:06.061Z,12.68
2017-11-07T04:21:11.821Z,12.32
2017-11-07T04:22:17.572Z,13.45
2017-11-07T04:23:23.353Z,13.77
2017-11-07T04:24:29.120Z,12.80
2017-11-07T04:25:34.883Z,13.88
2017-11-07T04:26:40.648Z,13.50
2017-11-07T04:27:46.658Z,13.07
2017-11-07T04:28:52.428Z,12.68
2017-11-07T04:29:58.188Z,12.80
2017-11-07T04:31:05.437Z,13.43
2017-11-07T04:32:11.205Z,13.77
2017-11-07T04:33:16.954Z,11.38
2017-11-07T04:34:23.508Z,11.95
2017-11-07T04:35:30.036Z,11.43
2017-11-07T04:36:35.792Z,12.95
2017-11-07T04:37:41.223Z,10.75
2017-11-07T04:38:47.020Z,12.18
2017-11-07T04:39:52.794Z,13.13
2017-11-07T04:40:58.545Z,11.90
2017-11-07T04:42:04.056Z,13.40
2017-11-07T04:43:09.884Z,12.77
2017-11-07T04:44:15.625Z,13.10
2017-11-07T04:45:21.657Z,12.50
2017-11-07T04:46:27.424Z,12.35
2017-11-07T04:47:33.185Z,12.18
2017-11-07T04:48:38.928Z,12.18
2017-11-07T04:49:44.685Z,11.07
2017-11-07T04:50:50.465Z,11.38
2017-11-07T04:51:56.218Z,13.40
2017-11-07T04:53:01.978Z,12.55
2017-11-07T04:54:07.731Z,12.80
2017-11-07T04:55:13.477Z,12.73
2017-11-07T04:56:19.252Z,11.90
2017-11-07T04:57:25.777Z,12.27
2017-11-07T04:58:31.527Z,12.55
2017-11-07T04:59:37.317Z,12.27
2017-11-07T05:00:43.854Z,11.55
2017-11-07T05:01:50.397Z,12.07
2017-11-07T05:02:56.260Z,12.60
2017-11-07T05:04:02.773Z,12.50
2017-11-07T05:05:08.530Z,12.68
2017-11-07T05:06:14.460Z,12.45
2017-11-07T05:07:20.265Z,13.48
2017-11-07T05:08:26.772Z,13.35
2017-11-07T05:09:32.541Z,11.25
2017-11-07T05:10:38.308Z,11.80
2017-11-07T05:11:44.062Z,11.43
2017-11-07T05:12:49.848Z,12.37
2017-11-07T05:13:55.621Z,11.48
2017-11-07T05:15:02.147Z,11.50
2017-11-07T05:16:07.717Z,10.88
2017-11-07T05:17:14.232Z,12.80
2017-11-07T05:18:20.020Z,10.70
2017-11-07T05:19:26.764Z,12.77
2017-11-07T05:20:32.512Z,12.70
2017-11-07T05:21:38.300Z,12.40
2017-11-07T05:22:44.073Z,11.82
2017-11-07T05:23:49.849Z,12.30
2017-11-07T05:24:56.364Z,11.90
2017-11-07T05:26:02.109Z,11.85
2017-11-07T05:27:07.865Z,11.63
2017-11-07T05:28:13.621Z,11.68
2017-11-07T05:29:19.201Z,11.50
2017-11-07T05:30:24.953Z,13.82
2017-11-07T05:31:30.982Z,10.85
2017-11-07T05:32:36.742Z,11.00
2017-11-07T05:33:42.505Z,11.73
2017-11-07T05:34:48.288Z,11.43
2017-11-07T05:35:54.900Z,11.07
2017-11-07T05:37:00.657Z,11.40
2017-11-07T05:38:06.404Z,11.25
2017-11-07T05:39:12.232Z,10.35
2017-11-07T05:40:18.004Z,13.52
2017-11-07T05:41:23.789Z,12.15
2017-11-07T05:42:29.558Z,13.68
2017-11-07T05:43:35.352Z,13.05
2017-11-07T05:44:41.861Z,13.55
2017-11-07T05:45:47.295Z,13.65
2017-11-07T05:46:52.696Z,12.27
2017-11-07T05:47:58.108Z,12.35
2017-11-07T05:49:04.690Z,12.52
2017-11-07T05:50:10.096Z,13.65
2017-11-07T05:51:15.949Z,12.77
2017-11-07T05:52:22.424Z,12.93
2017-11-07T05:53:28.323Z,12.02
2017-11-07T05:54:34.084Z,12.85
2017-11-07T05:55:40.606Z,12.95
2017-11-07T05:56:46.397Z,12.48
2017-11-07T05:57:52.571Z,14.23
2017-11-07T05:58:58.341Z,13.80
2017-11-07T06:00:03.674Z,14.63
2017-11-07T06:01:09.697Z,15.82
2017-11-07T06:02:15.481Z,13.30
2017-11-07T06:03:21.270Z,13.50
2017-11-07T06:04:28.796Z,13.65
2017-11-07T06:05:34.541Z,13.38
2017-11-07T06:06:40.305Z,12.40
2017-11-07T06:07:46.854Z,15.07
2017-11-07T06:08:52.598Z,14.87
2017-11-07T06:09:59.124Z,12.65
2017-11-07T06:11:04.881Z,13.35
2017-11-07T06:12:10.632Z,14.35
2017-11-07T06:13:17.191Z,13.48
2017-11-07T06:14:22.941Z,12.82
2017-11-07T06:15:29.256Z,13.05
2017-11-07T06:16:35.768Z,14.70
2017-11-07T06:17:42.297Z,13.52
2017-11-07T06:18:48.061Z,15.27
2017-11-07T06:19:54.582Z,13.30
2017-11-07T06:21:00.154Z,14.85
2017-11-07T06:22:05.918Z,14.00
2017-11-07T06:23:12.432Z,14.43
2017-11-07T06:24:18.038Z,13.60
2017-11-07T06:25:24.078Z,14.85
2017-11-07T06:26:29.821Z,13.98
2017-11-07T06:27:35.584Z,13.45
2017-11-07T06:28:41.138Z,14.30
2017-11-07T06:29:46.939Z,15.27
2017-11-07T06:30:52.553Z,13.98
2017-11-07T06:31:59.069Z,13.68
2017-11-07T06:33:04.270Z,14.68
2017-11-07T06:34:10.030Z,12.88
2017-11-07T06:35:15.816Z,13.73
2017-11-07T06:36:22.152Z,12.70
2017-11-07T06:37:27.900Z,13.50
2017-11-07T06:38:34.432Z,12.63
2017-11-07T06:39:40.187Z,13.77
2017-11-07T06:40:45.968Z,13.45
2017-11-07T06:41:52.496Z,13.38
2017-11-07T06:42:58.262Z,13.70
2017-11-07T06:44:04.443Z,12.50
2017-11-07T06:45:09.847Z,12.93
2017-11-07T06:46:15.620Z,14.77
2017-11-07T06:47:21.373Z,14.65
2017-11-07T06:48:27.401Z,13.88
2017-11-07T06:49:33.155Z,12.45
2017-11-07T06:50:39.029Z,12.90
2017-11-07T06:51:44.805Z,13.88
2017-11-07T06:52:51.350Z,13.23
2017-11-07T06:53:57.098Z,14.77
2017-11-07T06:55:02.859Z,13.82
2017-11-07T06:56:09.380Z,14.07
2017-11-07T06:57:15.262Z,12.95
2017-11-07T06:58:21.891Z,14.75
2017-11-07T06:59:27.684Z,14.75
2017-11-07T07:00:33.936Z,14.15
2017-11-07T07:01:39.760Z,15.45
2017-11-07T07:02:46.460Z,13.15
2017-11-07T07:03:53.356Z,13.05
2017-11-07T07:04:59.256Z,14.27
2017-11-07T07:06:05.013Z,15.18
2017-11-07T07:07:10.775Z,13.98
2017-11-07T07:08:16.628Z,13.07
2017-11-07T07:09:22.793Z,13.80
2017-11-07T07:10:28.651Z,13.65
2017-11-07T07:11:35.564Z,13.70
2017-11-07T07:12:41.593Z,14.32
2017-11-07T07:13:47.393Z,12.63
2017-11-07T07:14:53.145Z,14.60
2017-11-07T07:15:59.669Z,12.30
2017-11-07T07:17:05.437Z,12.80
2017-11-07T07:18:12.703Z,12.35
2017-11-07T07:19:18.802Z,13.43
2017-11-07T07:20:24.574Z,14.30
2017-11-07T07:21:30.325Z,13.90
2017-11-07T07:22:36.266Z,12.55
2017-11-07T07:23:42.022Z,13.13
2017-11-07T07:24:47.855Z,13.82
2017-11-07T07:25:53.602Z,14.13
2017-11-07T07:26:59.149Z,13.43
2017-11-07T07:28:04.920Z,12.27
2017-11-07T07:29:11.445Z,13.77
2017-11-07T07:30:17.214Z,14.90
2017-11-07T07:31:23.740Z,12.20
2017-11-07T07:32:29.500Z,14.00
2017-11-07T07:33:35.481Z,13.35
2017-11-07T07:34:41.240Z,11.98
2017-11-07T07:35:47.050Z,14.48
2017-11-07T07:36:53.223Z,12.43
2017-11-07T07:37:58.970Z,13.00
2017-11-07T07:39:04.297Z,12.77
2017-11-07T07:40:10.143Z,13.02
2017-11-07T07:41:15.924Z,12.25
2017-11-07T07:42:22.593Z,12.60
2017-11-07T07:43:28.695Z,12.90
2017-11-07T07:44:34.452Z,12.57
2017-11-07T07:45:40.214Z,12.70
2017-11-07T07:46:45.995Z,12.00
2017-11-07T07:47:52.528Z,12.85
2017-11-07T07:48:58.318Z,11.43
2017-11-07T07:50:03.813Z,13.35
2017-11-07T07:51:09.597Z,12.65
2017-11-07T07:52:15.442Z,12.80
2017-11-07T07:53:21.255Z,13.55
2017-11-07T07:54:27.764Z,12.85
2017-11-07T07:55:33.517Z,13.68
2017-11-07T07:56:39.299Z,11.52
2017-11-07T07:57:45.853Z,13.23
2017-11-07T07:58:51.645Z,12.65
2017-11-07T07:59:57.406Z,11.68
2017-11-07T08:01:03.164Z,13.00
2017-11-07T08:02:08.920Z,12.45
2017-11-07T08:03:15.486Z,10.70
2017-11-07T08:04:22.010Z,13.77
2017-11-07T08:05:27.088Z,12.45
2017-11-07T08:06:33.220Z,14.45
2017-11-07T08:07:40.496Z,13.65
2017-11-07T08:08:46.101Z,12.85
2017-11-07T08:09:51.857Z,12.85
2017-11-07T08:10:57.362Z,14.20
2017-11-07T08:12:02.768Z,12.15
2017-11-07T08:13:08.571Z,13.32
2017-11-07T08:14:15.759Z,13.43
2017-11-07T08:15:22.120Z,14.30
2017-11-07T08:16:27.933Z,14.55
2017-11-07T08:17:33.727Z,12.00
2017-11-07T08:18:40.529Z,12.90
2017-11-07T08:19:46.389Z,11.30
2017-11-07T08:20:52.150Z,13.35
2017-11-07T08:21:58.668Z,12.57
2017-11-07T08:23:04.440Z,13.35
2017-11-07T08:24:10.202Z,12.68
2017-11-07T08:25:16.995Z,12.80
2017-11-07T08:26:23.247Z,12.27
2017-11-07T08:27:29.475Z,13.98
2017-11-07T08:28:36.365Z,12.65
2017-11-07T08:29:42.393Z,12.80
2017-11-07T08:30:49.042Z,13.07
2017-11-07T08:31:55.738Z,12.65
2017-11-07T08:33:01.736Z,13.32
2017-11-07T08:34:07.532Z,14.35
2017-11-07T08:35:13.585Z,13.68
2017-11-07T08:36:19.591Z,11.73
2017-11-07T08:37:26.286Z,11.30
2017-11-07T08:38:32.336Z,10.20
2017-11-07T08:39:38.188Z,11.40
2017-11-07T08:40:43.946Z,12.82
2017-11-07T08:41:49.726Z,10.80
2017-11-07T08:42:55.712Z,10.70
2017-11-07T08:44:01.553Z,10.00
2017-11-07T08:45:07.462Z,11.88
2017-11-07T08:46:14.084Z,10.85
2017-11-07T08:47:20.010Z,10.95
2017-11-07T08:48:25.650Z,12.18
2017-11-07T08:49:31.426Z,11.63
2017-11-07T08:50:37.370Z,11.02
2017-11-07T08:51:43.220Z,11.38
2017-11-07T08:52:49.325Z,11.38
2017-11-07T08:53:55.361Z,12.57
2017-11-07T08:55:02.120Z,10.07
2017-11-07T08:56:08.089Z,12.40
2017-11-07T08:57:13.957Z,12.00
2017-11-07T08:58:20.078Z,12.70
2017-11-07T08:59:26.332Z,13.48
2017-11-07T09:00:32.312Z,13.60
2017-11-07T09:01:38.633Z,13.23
2017-11-07T09:02:44.478Z,12.88
2017-11-07T09:03:50.302Z,13.30
2017-11-07T09:04:56.860Z,14.32
2017-11-07T09:06:03.495Z,15.30
2017-11-07T09:07:09.456Z,14.95
2017-11-07T09:08:16.077Z,13.02
2017-11-07T09:09:21.634Z,12.98
2017-11-07T09:10:27.676Z,14.23
2017-11-07T09:11:33.621Z,12.82
2017-11-07T09:12:41.254Z,14.65
2017-11-07T09:13:47.056Z,14.23
2017-11-07T09:14:53.032Z,14.50
2017-11-07T09:15:59.178Z,14.23
2017-11-07T09:17:05.868Z,14.48
2017-11-07T09:18:11.781Z,13.75
2017-11-07T09:19:19.280Z,14.60
2017-11-07T09:20:26.378Z,15.18
2017-11-07T09:21:32.412Z,15.20
2017-11-07T09:22:38.238Z,15.82
2017-11-07T09:23:44.781Z,16.40
2017-11-07T09:24:51.098Z,15.40
2017-11-07T09:25:56.873Z,16.75
2017-11-07T09:27:02.723Z,16.37
2017-11-07T09:28:08.597Z,16.62
2017-11-07T09:29:14.608Z,15.55
2017-11-07T09:30:20.361Z,15.32
2017-11-07T09:31:26.545Z,16.40
2017-11-07T09:32:32.297Z,15.88
2017-11-07T09:33:38.325Z,16.67
2017-11-07T09:34:44.895Z,16.55
2017-11-07T09:35:50.661Z,16.73
2017-11-07T09:36:56.482Z,16.23
2017-11-07T09:38:02.424Z,17.40
2017-11-07T09:39:08.272Z,17.02
2017-11-07T09:40:14.180Z,15.30
2017-11-07T09:41:20.040Z,15.90
2017-11-07T09:42:26.686Z,17.37
2017-11-07T09:43:33.493Z,15.50
2017-11-07T09:44:40.318Z,18.02
2017-11-07T09:45:46.718Z,16.95
2017-11-07T09:46:52.540Z,16.67
2017-11-07T09:47:59.142Z,16.85
2017-11-07T09:49:05.008Z,16.65
2017-11-07T09:50:10.903Z,17.12
2017-11-07T09:51:16.814Z,16.52
2017-11-07T09:52:23.641Z,14.55
2017-11-07T09:53:29.420Z,15.48
2017-11-07T09:54:35.942Z,16.37
2017-11-07T09:55:41.759Z,16.02
2017-11-07T09:56:47.502Z,14.87
2017-11-07T09:57:53.345Z,16.30
2017-11-07T09:58:59.129Z,15.27
2017-11-07T10:00:05.034Z,16.87
2017-11-07T10:01:10.796Z,15.73
2017-11-07T10:02:16.816Z,16.30
2017-11-07T10:03:23.138Z,15.57
2017-11-07T10:04:29.273Z,15.77
2017-11-07T10:05:36.284Z,14.90
2017-11-07T10:06:42.101Z,14.77
2017-11-07T10:07:47.878Z,16.17
2017-11-07T10:08:53.661Z,16.62
2017-11-07T10:09:59.280Z,15.38
2017-11-07T10:11:05.134Z,15.10
2017-11-07T10:12:10.897Z,15.10
2017-11-07T10:13:16.669Z,15.90
2017-11-07T10:14:23.372Z,15.30
2017-11-07T10:15:29.193Z,14.90
2017-11-07T10:16:34.762Z,15.77
2017-11-07T10:17:39.829Z,14.40
2017-11-07T10:18:45.638Z,14.77
2017-11-07T10:19:51.462Z,14.32
2017-11-07T10:20:57.514Z,15.27
2017-11-07T10:22:03.129Z,14.85
2017-11-07T10:23:09.695Z,15.00
2017-11-07T10:24:16.434Z,14.73
2017-11-07T10:25:22.333Z,14.75
2017-11-07T10:26:28.530Z,14.43
2017-11-07T10:27:34.419Z,14.30
2017-11-07T10:28:40.294Z,15.43
2017-11-07T10:29:45.723Z,12.98
2017-11-07T10:30:51.502Z,15.55
2017-11-07T10:31:58.200Z,15.05
2017-11-07T10:33:03.981Z,15.32
2017-11-07T10:34:09.728Z,14.57
2017-11-07T10:35:15.332Z,13.93
2017-11-07T10:36:20.950Z,14.07
2017-11-07T10:37:26.990Z,14.48
2017-11-07T10:38:33.177Z,15.25
2017-11-07T10:39:38.993Z,16.60
2017-11-07T10:40:44.740Z,13.93
2017-11-07T10:41:50.516Z,15.13
2017-11-07T10:42:56.371Z,14.18
2017-11-07T10:44:02.141Z,12.77
2017-11-07T10:45:08.704Z,14.73
2017-11-07T10:46:15.269Z,14.18
2017-11-07T10:47:21.802Z,14.15
2017-11-07T10:48:27.585Z,13.80
2017-11-07T10:49:33.167Z,12.93
2017-11-07T10:50:38.982Z,14.43
2017-11-07T10:51:44.805Z,14.85
2017-11-07T10:52:50.585Z,14.70
2017-11-07T10:53:56.477Z,13.35
2017-11-07T10:55:01.959Z,13.70
2017-11-07T10:56:07.281Z,13.98
2017-11-07T10:57:12.393Z,13.70
2017-11-07T10:58:17.985Z,15.97
2017-11-07T10:59:23.954Z,15.02
2017-11-07T11:00:29.534Z,13.05
2017-11-07T11:01:35.422Z,13.77
2017-11-07T11:02:41.525Z,15.40
2017-11-07T11:03:47.330Z,14.10
2017-11-07T11:04:52.760Z,14.93
2017-11-07T11:05:59.835Z,13.45
2017-11-07T11:07:07.227Z,14.25
2017-11-07T11:08:13.772Z,14.00
2017-11-07T11:09:19.537Z,14.07
2017-11-07T11:10:25.918Z,14.55
2017-11-07T11:11:31.756Z,13.60
2017-11-07T11:12:37.549Z,14.35
2017-11-07T11:13:43.227Z,13.60
2017-11-07T11:14:49.765Z,14.18
2017-11-07T11:15:55.720Z,14.30
2017-11-07T11:17:01.513Z,13.77
2017-11-07T11:18:07.306Z,14.60
2017-11-07T11:19:13.882Z,14.95
2017-11-07T11:20:19.926Z,13.95
2017-11-07T11:21:26.537Z,14.38
2017-11-07T11:22:32.293Z,13.45
2017-11-07T11:23:38.089Z,14.50
2017-11-07T11:24:43.910Z,14.40
2017-11-07T11:25:50.473Z,14.45
2017-11-07T11:26:57.062Z,14.80
2017-11-07T11:28:02.872Z,15.25
2017-11-07T11:29:09.768Z,15.10
2017-11-07T11:30:15.561Z,15.98
2017-11-07T11:31:21.555Z,13.57
2017-11-07T11:32:27.240Z,15.65
2017-11-07T11:33:34.101Z,15.23
2017-11-07T11:34:39.900Z,13.50
2017-11-07T11:35:45.670Z,15.20
2017-11-07T11:36:51.429Z,15.60
2017-11-07T11:37:57.224Z,12.50
2017-11-07T11:39:02.984Z,14.68
2017-11-07T11:40:08.752Z,13.93
2017-11-07T11:41:14.508Z,15.68
2017-11-07T11:42:20.321Z,16.45
2017-11-07T11:43:26.099Z,14.80
2017-11-07T11:44:31.863Z,14.32
2017-11-07T11:45:37.922Z,14.40
2017-11-07T11:46:43.741Z,14.65
2017-11-07T11:47:49.600Z,14.77
2017-11-07T11:48:55.660Z,16.42
2017-11-07T11:50:01.594Z,16.48
2017-11-07T11:51:08.272Z,15.77
2017-11-07T11:52:14.124Z,15.90
2017-11-07T11:53:19.912Z,17.00
2017-11-07T11:54:25.453Z,14.77
2017-11-07T11:55:31.293Z,14.65
2017-11-07T11:56:37.069Z,17.40
2017-11-07T11:57:43.782Z,16.30
2017-11-07T11:58:49.380Z,17.25
2017-11-07T11:59:55.224Z,17.17
2017-11-07T12:01:00.650Z,17.10
2017-11-07T12:02:06.582Z,16.55
2017-11-07T12:03:12.777Z,18.35
2017-11-07T12:04:18.594Z,16.60
2017-11-07T12:05:24.373Z,16.87
2017-11-07T12:06:30.181Z,17.17
2017-11-07T12:07:35.944Z,17.23
2017-11-07T12:08:41.848Z,16.80
2017-11-07T12:09:48.650Z,17.62
2017-11-07T12:10:54.794Z,18.40
2017-11-07T12:12:01.142Z,18.25
2017-11-07T12:13:07.089Z,16.83
2017-11-07T12:14:13.143Z,17.35
2017-11-07T12:15:19.654Z,17.70
2017-11-07T12:16:26.425Z,17.92
2017-11-07T12:17:33.295Z,18.33
2017-11-07T12:18:39.218Z,17.90
2017-11-07T12:19:45.000Z,17.45
2017-11-07T12:20:51.525Z,17.92
2017-11-07T12:21:57.419Z,18.75
2017-11-07T12:23:03.177Z,17.58
2017-11-07T12:24:08.934Z,18.60
2017-11-07T12:25:14.693Z,18.45
2017-11-07T12:26:20.297Z,17.23
2017-11-07T12:27:26.097Z,18.42
2017-11-07T12:28:32.858Z,17.27
2017-11-07T12:29:38.795Z,17.52
2017-11-07T12:30:44.782Z,18.70
2017-11-07T12:31:50.727Z,18.15
2017-11-07T12:32:56.728Z,16.45
2017-11-07T12:34:02.801Z,18.77
2017-11-07T12:35:09.490Z,18.67
2017-11-07T12:36:14.919Z,18.02
2017-11-07T12:37:20.741Z,17.65
2017-11-07T12:38:26.724Z,16.90
2017-11-07T12:39:32.962Z,18.48
2017-11-07T12:40:38.914Z,18.98
2017-11-07T12:41:45.682Z,18.30
2017-11-07T12:42:51.624Z,18.23
2017-11-07T12:43:57.393Z,19.00
2017-11-07T12:45:03.378Z,18.83
2017-11-07T12:46:09.324Z,17.52
2017-11-07T12:47:16.139Z,20.37
2017-11-07T12:48:21.966Z,21.48
2017-11-07T12:49:27.921Z,21.62
2017-11-07T12:50:50.357Z,21.37
2017-11-07T12:52:02.700Z,20.02
2017-11-07T12:53:08.817Z,19.52
2017-11-07T12:54:14.317Z,21.05
2017-11-07T12:55:20.901Z,19.67
2017-11-07T12:56:26.698Z,21.33
2017-11-07T12:57:32.687Z,20.85
2017-11-07T12:58:38.476Z,21.98
2017-11-07T12:59:44.455Z,21.52
2017-11-07T13:00:50.637Z,22.25
2017-11-07T13:01:56.663Z,21.77
2017-11-07T13:03:03.561Z,21.25
2017-11-07T13:04:09.542Z,21.30
2017-11-07T13:05:16.407Z,18.60
2017-11-07T13:06:22.350Z,21.95
2017-11-07T13:07:28.180Z,19.48
2017-11-07T13:08:34.107Z,19.75
2017-11-07T13:09:40.120Z,21.30
2017-11-07T13:10:46.807Z,23.55
2017-11-07T13:11:52.961Z,22.87
2017-11-07T13:12:59.013Z,22.08
2017-11-07T13:14:05.057Z,21.12
2017-11-07T13:15:11.822Z,24.40
2017-11-07T13:16:17.820Z,22.58
2017-11-07T13:17:24.738Z,20.58
2017-11-07T13:18:30.790Z,23.73
2017-11-07T13:19:36.937Z,21.92
2017-11-07T13:20:42.530Z,23.33
2017-11-07T13:21:48.435Z,25.40
2017-11-07T13:22:54.472Z,23.98
2017-11-07T13:24:00.622Z,20.70
2017-11-07T13:25:06.745Z,22.73
2017-11-07T13:26:13.655Z,21.62
2017-11-07T13:27:19.644Z,20.88
2017-11-07T13:28:26.655Z,22.05
2017-11-07T13:29:32.472Z,21.65
2017-11-07T13:30:38.249Z,22.52
2017-11-07T13:31:44.009Z,22.15
2017-11-07T13:32:49.782Z,24.33
2017-11-07T13:33:55.567Z,22.58
2017-11-07T13:35:01.802Z,22.87
2017-11-07T13:36:08.466Z,21.37
2017-11-07T13:37:15.265Z,23.62
2017-11-07T13:38:21.394Z,22.77
2017-11-07T13:40:53.878Z,21.02
2017-11-07T13:42:00.746Z,21.67
2017-11-07T13:43:06.646Z,22.80
2017-11-07T13:44:13.454Z,23.42
2017-11-07T13:45:19.601Z,20.40
2017-11-07T13:46:25.755Z,23.38
2017-11-07T13:47:31.787Z,24.08
2017-11-07T13:48:37.859Z,22.30
2017-11-07T13:49:43.827Z,21.52
2017-11-07T13:50:50.568Z,21.83
2017-11-07T13:51:56.711Z,21.50
2017-11-07T13:53:02.761Z,23.50
2017-11-07T13:54:08.778Z,23.08
2017-11-07T13:55:15.507Z,23.40
2017-11-07T13:56:21.405Z,21.85
2017-11-07T13:57:27.565Z,24.73
2017-11-07T13:58:33.350Z,21.85
2017-11-07T13:59:39.304Z,22.85
2017-11-07T14:00:45.136Z,22.20
2017-11-07T14:01:50.968Z,23.23
2017-11-07T14:02:56.753Z,21.80
2017-11-07T14:04:02.557Z,18.98
2017-11-07T14:05:08.400Z,23.33
2017-11-07T14:06:14.166Z,21.05
2017-11-07T14:07:21.000Z,21.02
2017-11-07T14:08:26.825Z,20.10
2017-11-07T14:09:32.831Z,19.90
2017-11-07T14:10:38.814Z,20.62
2017-11-07T14:11:44.615Z,22.27